Time;durP1;ratioP1;P1;durP2;ratioP2;P2;SDS_P1;SDS_P2;PMS_P1;PMS_P2;Temp;Humidity;BMP_temperature;BMP_pressure;BME280_temperature;BME280_humidity;BME280_pressure;Samples;Min_cycle;Max_cycle;Signal;HPM_P1;HPM_P2
2022/07/06 00:00:14;;;;;;;1.13;0.67;;;16.80;57.50;;;;;;5199392;28;20184;-46
2022/07/06 00:02:45;;;;;;;0.97;0.70;;;16.80;57.40;;;;;;5203760;28;20194;-48
2022/07/06 00:05:17;;;;;;;0.73;0.73;;;16.80;57.70;;;;;;5207359;28;20211;-44
2022/07/06 00:07:48;;;;;;;0.77;0.77;;;16.80;57.90;;;;;;5198151;28;20196;-45
2022/07/06 00:10:18;;;;;;;1.73;0.73;;;16.80;58.10;;;;;;5189196;28;20445;-45
2022/07/06 00:12:49;;;;;;;0.87;0.87;;;16.70;58.20;;;;;;5192316;28;20269;-45
2022/07/06 00:15:20;;;;;;;0.97;0.97;;;16.70;58.70;;;;;;5197576;28;20783;-47
2022/07/06 00:17:50;;;;;;;0.90;0.90;;;16.70;58.80;;;;;;5215337;28;20676;-46
2022/07/06 00:20:21;;;;;;;2.87;0.63;;;16.70;59.10;;;;;;5187503;28;20191;-46
2022/07/06 00:22:52;;;;;;;1.87;1.10;;;16.60;59.30;;;;;;5207754;28;20184;-45
2022/07/06 00:25:22;;;;;;;0.50;0.50;;;16.60;59.70;;;;;;5187598;28;20206;-45
2022/07/06 00:27:53;;;;;;;11.03;0.80;;;16.50;59.80;;;;;;5201679;28;20211;-45
2022/07/06 00:30:24;;;;;;;0.80;0.80;;;16.50;60.30;;;;;;5211765;28;20198;-45
2022/07/06 00:32:55;;;;;;;2.87;0.87;;;16.50;60.70;;;;;;5197441;28;20239;-46
2022/07/06 00:35:26;;;;;;;0.70;0.70;;;16.40;61.10;;;;;;5202115;28;20207;-45
2022/07/06 00:37:56;;;;;;;1.50;0.70;;;16.40;61.40;;;;;;5186410;28;20461;-45
2022/07/06 00:40:29;;;;;;;2.10;0.93;;;16.40;62.10;;;;;;5201643;28;20437;-44
2022/07/06 00:43:00;;;;;;;2.27;1.00;;;16.40;62.80;;;;;;5213870;28;20182;-45
2022/07/06 00:45:30;;;;;;;0.97;0.73;;;16.40;63.00;;;;;;5196364;28;20443;-46
2022/07/06 00:48:01;;;;;;;0.83;0.80;;;16.40;63.40;;;;;;5171158;28;20214;-45
2022/07/06 00:50:33;;;;;;;0.63;0.63;;;16.40;63.80;;;;;;5191528;28;20207;-45
2022/07/06 00:53:05;;;;;;;3.60;0.73;;;16.40;64.40;;;;;;5186526;28;20192;-46
2022/07/06 00:55:41;;;;;;;2.90;1.07;;;16.30;65.80;;;;;;5192803;28;20867;-46
2022/07/06 00:58:11;;;;;;;0.93;0.93;;;16.30;66.40;;;;;;5185649;28;20456;-45
2022/07/06 01:00:44;;;;;;;1.33;1.23;;;16.30;67.10;;;;;;5193083;28;20453;-44
2022/07/06 01:03:15;;;;;;;2.00;0.90;;;16.30;67.90;;;;;;5182883;28;20249;-45
2022/07/06 01:05:46;;;;;;;1.80;0.90;;;16.30;68.50;;;;;;5199612;28;20482;-45
2022/07/06 01:08:16;;;;;;;2.83;1.13;;;16.40;69.00;;;;;;5207361;28;20208;-51
2022/07/06 01:10:47;;;;;;;2.60;0.90;;;16.40;69.40;;;;;;5201292;28;20248;-45
2022/07/06 01:13:18;;;;;;;1.37;1.27;;;16.50;70.00;;;;;;5202961;28;20196;-45
2022/07/06 01:15:49;;;;;;;4.03;0.77;;;16.50;70.20;;;;;;5196450;28;20212;-45
2022/07/06 01:18:19;;;;;;;4.67;1.30;;;16.50;70.50;;;;;;5199028;28;20228;-45
2022/07/06 01:20:50;;;;;;;3.07;0.70;;;16.50;70.70;;;;;;5191808;28;20271;-45
2022/07/06 01:23:21;;;;;;;1.60;0.97;;;16.40;71.40;;;;;;5191280;28;20180;-45
2022/07/06 01:25:55;;;;;;;1.10;1.10;;;16.30;72.20;;;;;;5206393;28;20237;-44
2022/07/06 01:28:25;;;;;;;1.10;1.10;;;16.30;73.20;;;;;;5188259;28;20211;-44
2022/07/06 01:30:56;;;;;;;0.70;0.70;;;16.20;74.40;;;;;;5199393;28;20499;-45
2022/07/06 01:33:26;;;;;;;1.70;1.07;;;16.20;75.30;;;;;;5189460;28;20267;-44
2022/07/06 01:35:57;;;;;;;6.13;1.03;;;16.10;76.20;;;;;;5168428;28;20298;-44
2022/07/06 01:38:28;;;;;;;2.20;0.90;;;16.20;77.20;;;;;;5216625;28;20278;-44
2022/07/06 01:40:58;;;;;;;10.27;0.87;;;16.10;77.30;;;;;;5207760;28;20287;-44
2022/07/06 01:43:29;;;;;;;3.90;1.43;;;16.20;78.10;;;;;;5201436;28;20176;-45
2022/07/06 01:46:00;;;;;;;2.67;1.10;;;16.20;79.30;;;;;;5197689;28;20226;-45
2022/07/06 01:48:30;;;;;;;1.53;0.93;;;16.20;80.40;;;;;;5208736;28;20203;-44
2022/07/06 01:51:01;;;;;;;2.47;1.13;;;16.20;80.90;;;;;;5193837;28;20196;-44
2022/07/06 01:53:31;;;;;;;1.07;1.07;;;16.30;81.60;;;;;;5200527;28;20559;-45
2022/07/06 01:56:02;;;;;;;2.77;1.03;;;16.30;82.40;;;;;;5209402;28;20276;-45
2022/07/06 01:58:33;;;;;;;3.27;1.10;;;16.40;81.90;;;;;;5206747;28;20207;-45
2022/07/06 02:01:11;;;;;;;3.00;2.07;;;16.40;81.10;;;;;;5213445;28;20317;-45
2022/07/06 02:03:42;;;;;;;1.73;1.33;;;16.40;80.50;;;;;;5204028;28;20546;-45
2022/07/06 02:06:13;;;;;;;4.03;1.10;;;16.40;79.90;;;;;;5182074;28;20435;-45
2022/07/06 02:08:44;;;;;;;1.37;1.37;;;16.50;80.00;;;;;;5202812;28;20445;-44
2022/07/06 02:11:14;;;;;;;5.10;1.20;;;16.50;79.20;;;;;;5211087;28;20175;-44
2022/07/06 02:13:45;;;;;;;3.53;1.53;;;16.50;79.00;;;;;;5210432;28;20187;-46
2022/07/06 02:16:15;;;;;;;1.60;1.50;;;16.70;78.50;;;;;;5189069;28;20262;-45
2022/07/06 02:18:46;;;;;;;2.60;1.60;;;16.70;77.40;;;;;;5191283;28;20199;-45
2022/07/06 02:21:17;;;;;;;2.90;0.90;;;16.80;77.40;;;;;;5199591;28;20668;-44
2022/07/06 02:23:48;;;;;;;1.00;1.00;;;16.80;78.60;;;;;;5219709;28;20192;-46
2022/07/06 02:26:18;;;;;;;1.17;1.00;;;16.80;81.40;;;;;;5202797;28;20207;-44
2022/07/06 02:28:49;;;;;;;1.23;1.10;;;16.70;87.10;;;;;;5196844;28;20273;-46
2022/07/06 02:31:20;;;;;;;1.30;1.30;;;16.50;94.80;;;;;;5199604;28;20306;-45
2022/07/06 02:33:51;;;;;;;1.27;1.20;;;16.10;99.90;;;;;;5191951;28;20664;-45
2022/07/06 02:36:21;;;;;;;3.73;1.60;;;15.90;99.90;;;;;;5186904;28;20577;-44
2022/07/06 02:38:52;;;;;;;3.57;1.53;;;15.60;99.90;;;;;;5189381;28;20329;-44
2022/07/06 02:41:22;;;;;;;1.40;1.40;;;15.40;99.90;;;;;;5188059;28;20276;-45
2022/07/06 02:43:53;;;;;;;1.53;1.13;;;15.30;99.90;;;;;;5186708;28;20234;-45
2022/07/06 02:46:23;;;;;;;1.07;1.07;;;15.10;99.90;;;;;;5202812;28;20199;-44
2022/07/06 02:48:54;;;;;;;6.97;1.43;;;15.00;99.90;;;;;;5192346;28;20246;-44
2022/07/06 02:51:25;;;;;;;2.77;1.40;;;14.90;99.90;;;;;;5186312;28;20187;-47
2022/07/06 02:53:55;;;;;;;4.00;1.50;;;14.80;99.90;;;;;;5192027;28;20181;-47
2022/07/06 02:56:27;;;;;;;3.37;1.60;;;14.70;99.90;;;;;;5198830;28;20238;-48
2022/07/06 02:58:58;;;;;;;5.47;1.50;;;14.70;99.90;;;;;;5195204;28;20233;-48
2022/07/06 03:01:29;;;;;;;3.70;1.53;;;14.70;99.90;;;;;;5219377;28;20433;-48
2022/07/06 03:04:00;;;;;;;1.90;1.17;;;14.70;99.90;;;;;;5168429;28;20253;-46
2022/07/06 03:06:30;;;;;;;7.50;1.83;;;14.70;99.90;;;;;;5208003;28;20671;-49
2022/07/06 03:09:02;;;;;;;3.43;1.63;;;14.60;99.90;;;;;;5203212;28;20467;-49
2022/07/06 03:11:35;;;;;;;2.30;1.80;;;14.60;99.90;;;;;;5202790;28;20203;-47
2022/07/06 03:14:06;;;;;;;1.33;1.30;;;14.60;99.90;;;;;;5198337;28;20426;-48
2022/07/06 03:16:37;;;;;;;1.53;1.40;;;14.60;99.90;;;;;;5178206;28;20572;-46
2022/07/06 03:19:08;;;;;;;1.60;1.50;;;14.60;99.90;;;;;;5184597;28;20204;-49
2022/07/06 03:21:38;;;;;;;1.80;1.70;;;14.60;99.90;;;;;;5194860;28;20654;-49
2022/07/06 03:24:09;;;;;;;3.37;1.97;;;14.60;99.90;;;;;;5214070;28;20234;-49
2022/07/06 03:26:39;;;;;;;5.30;1.87;;;14.70;99.90;;;;;;5205534;28;20191;-45
2022/07/06 03:29:10;;;;;;;3.13;1.73;;;14.70;99.90;;;;;;5196099;28;20230;-48
2022/07/06 03:31:40;;;;;;;1.60;1.50;;;14.70;99.90;;;;;;5177962;28;20492;-47
2022/07/06 03:34:11;;;;;;;1.90;1.60;;;14.80;99.90;;;;;;5217197;28;20183;-48
2022/07/06 03:36:41;;;;;;;1.47;1.20;;;14.80;99.90;;;;;;5197363;28;20210;-47
2022/07/06 03:39:12;;;;;;;2.10;1.80;;;14.90;99.90;;;;;;5202999;28;20279;-48
2022/07/06 03:41:43;;;;;;;3.43;1.80;;;14.90;99.90;;;;;;5192880;28;20602;-46
2022/07/06 03:44:13;;;;;;;12.20;2.20;;;15.00;99.90;;;;;;5218231;28;20187;-49
2022/07/06 03:46:44;;;;;;;6.57;1.50;;;15.00;99.90;;;;;;5164176;28;20608;-49
2022/07/06 03:49:14;;;;;;;1.70;1.60;;;15.00;99.90;;;;;;5195335;28;20204;-47
2022/07/06 03:51:45;;;;;;;2.30;1.23;;;15.00;99.90;;;;;;5209087;28;20194;-46
2022/07/06 03:54:16;;;;;;;4.53;1.70;;;15.10;99.90;;;;;;5192587;28;20184;-48
2022/07/06 03:56:47;;;;;;;1.67;1.57;;;15.10;99.90;;;;;;5214628;28;20202;-46
2022/07/06 03:59:17;;;;;;;1.57;1.47;;;15.20;99.90;;;;;;5185130;28;20588;-48
2022/07/06 04:01:48;;;;;;;4.93;1.40;;;15.30;99.90;;;;;;5188112;28;20193;-48
2022/07/06 04:04:19;;;;;;;1.57;1.27;;;15.50;99.90;;;;;;5198339;28;20180;-48
2022/07/06 04:06:49;;;;;;;2.53;1.27;;;15.60;99.90;;;;;;5188593;28;20191;-49
2022/07/06 04:09:20;;;;;;;1.30;1.30;;;15.80;99.90;;;;;;5201391;28;20568;-49
2022/07/06 04:11:51;;;;;;;4.07;1.60;;;15.80;99.90;;;;;;5206760;28;20229;-48
2022/07/06 04:14:21;;;;;;;2.43;1.60;;;15.80;99.90;;;;;;5206223;28;20209;-48
2022/07/06 04:16:52;;;;;;;1.20;1.10;;;15.90;99.90;;;;;;5201628;28;20211;-49
2022/07/06 04:19:22;;;;;;;3.90;1.77;;;15.90;99.90;;;;;;5205162;28;20221;-47
2022/07/06 04:21:53;;;;;;;6.33;1.43;;;16.20;99.90;;;;;;5194603;28;20216;-48
2022/07/06 04:24:24;;;;;;;1.80;1.70;;;16.50;99.90;;;;;;5200719;28;20204;-48
2022/07/06 04:26:54;;;;;;;4.63;1.80;;;16.60;99.90;;;;;;5210485;28;20603;-48
2022/07/06 04:29:25;;;;;;;1.27;1.17;;;16.80;99.90;;;;;;5211623;28;20557;-47
2022/07/06 04:31:55;;;;;;;1.23;0.93;;;16.90;99.90;;;;;;5172135;28;20241;-48
2022/07/06 04:34:26;;;;;;;5.63;2.10;;;17.00;99.90;;;;;;5200098;28;20192;-47
2022/07/06 04:36:57;;;;;;;8.10;2.00;;;16.80;99.90;;;;;;5184488;28;20231;-48
2022/07/06 04:39:27;;;;;;;5.13;1.37;;;16.70;99.90;;;;;;5204512;28;20206;-48
2022/07/06 04:41:58;;;;;;;2.40;1.40;;;16.60;99.90;;;;;;5193571;28;20180;-49
2022/07/06 04:44:28;;;;;;;7.50;3.83;;;16.60;99.90;;;;;;5206825;28;20270;-48
2022/07/06 04:46:59;;;;;;;4.47;1.47;;;16.90;99.90;;;;;;5197923;28;20664;-48
2022/07/06 04:49:30;;;;;;;3.73;2.10;;;17.50;99.90;;;;;;5183074;28;20349;-49
2022/07/06 04:52:00;;;;;;;3.87;1.30;;;18.70;99.90;;;;;;5188043;28;20184;-48
2022/07/06 04:54:31;;;;;;;1.57;1.47;;;19.90;99.90;;;;;;5183848;28;20224;-49
2022/07/06 04:57:02;;;;;;;9.50;1.70;;;21.10;93.30;;;;;;5213822;28;20580;-49
2022/07/06 04:59:32;;;;;;;2.10;1.30;;;22.10;82.80;;;;;;5209288;28;20202;-49
2022/07/06 05:02:03;;;;;;;4.13;1.50;;;22.90;73.00;;;;;;5166090;28;20450;-49
2022/07/06 05:04:34;;;;;;;1.27;1.00;;;22.30;69.20;;;;;;5190155;28;20195;-48
2022/07/06 05:07:04;;;;;;;5.50;1.53;;;22.10;69.80;;;;;;5198584;28;20206;-48
2022/07/06 05:09:35;;;;;;;5.10;1.73;;;22.10;68.10;;;;;;5168316;28;20287;-49
2022/07/06 05:12:06;;;;;;;1.30;1.20;;;22.70;67.40;;;;;;5201253;28;20593;-49
2022/07/06 05:14:37;;;;;;;1.70;1.40;;;23.70;63.10;;;;;;5209190;28;20183;-48
2022/07/06 05:17:07;;;;;;;2.47;1.17;;;24.50;58.40;;;;;;5173452;28;20557;-49
2022/07/06 05:19:38;;;;;;;3.93;1.73;;;24.50;55.00;;;;;;5180764;28;20211;-47
2022/07/06 05:22:08;;;;;;;2.40;1.37;;;25.40;53.60;;;;;;5202029;28;20249;-49
2022/07/06 05:24:39;;;;;;;6.80;1.30;;;26.30;50.70;;;;;;5203405;28;20231;-51
2022/07/06 05:27:10;;;;;;;1.40;1.00;;;26.00;47.40;;;;;;5187985;28;20190;-48
2022/07/06 05:29:40;;;;;;;2.40;1.10;;;26.00;47.70;;;;;;5200833;28;20261;-51
2022/07/06 05:32:11;;;;;;;1.47;1.03;;;26.30;47.10;;;;;;5208172;28;20222;-48
2022/07/06 05:34:41;;;;;;;4.00;1.47;;;27.40;45.60;;;;;;5209611;28;20195;-49
2022/07/06 05:37:12;;;;;;;3.23;1.37;;;28.00;43.70;;;;;;5206168;28;20222;-49
2022/07/06 05:39:45;;;;;;;3.90;1.10;;;28.80;41.80;;;;;;5195078;28;20342;-49
2022/07/06 05:42:15;;;;;;;5.27;1.63;;;29.30;41.90;;;;;;5172083;28;20627;-48
2022/07/06 05:44:46;;;;;;;0.80;0.80;;;30.30;39.90;;;;;;5205913;28;20492;-48
2022/07/06 05:50:12;;;;;;;5.93;1.13;;;32.00;34.80;;;;;;5199618;28;20184;-48
2022/07/06 05:52:57;;;;;;;2.80;0.90;;;31.70;34.50;;;;;;5197308;28;20461;-52
2022/07/06 05:55:27;;;;;;;6.00;1.00;;;31.90;33.30;;;;;;5208606;28;20472;-49
2022/07/06 05:57:58;;;;;;;1.33;1.23;;;31.40;33.00;;;;;;5190894;28;20449;-47
2022/07/06 06:00:29;;;;;;;1.60;1.00;;;31.10;33.50;;;;;;5201545;28;20184;-48
2022/07/06 06:03:00;;;;;;;0.90;0.90;;;31.50;33.50;;;;;;5206739;28;20853;-48
2022/07/06 06:05:30;;;;;;;0.93;0.90;;;32.50;32.80;;;;;;5180807;28;20190;-49
2022/07/06 06:08:01;;;;;;;6.23;1.13;;;31.50;32.60;;;;;;5196079;28;20215;-48
2022/07/06 06:10:32;;;;;;;1.13;1.03;;;30.90;34.20;;;;;;5183605;28;20187;-49
2022/07/06 06:13:03;;;;;;;4.07;1.17;;;30.60;34.50;;;;;;5193238;28;20183;-48
2022/07/06 06:15:34;;;;;;;1.17;1.07;;;31.50;34.80;;;;;;5206253;28;20207;-48
2022/07/06 06:18:05;;;;;;;5.50;1.40;;;32.30;33.40;;;;;;5208119;28;20230;-49
2022/07/06 06:20:35;;;;;;;3.57;1.00;;;32.90;31.60;;;;;;5192171;28;20511;-49
2022/07/06 06:23:06;;;;;;;1.90;0.90;;;32.80;31.30;;;;;;5200422;28;20269;-49
2022/07/06 06:25:39;;;;;;;2.30;0.60;;;32.30;31.80;;;;;;5187648;28;20188;-48
2022/07/06 06:28:10;;;;;;;1.80;0.77;;;31.60;32.70;;;;;;5185811;28;20406;-48
2022/07/06 06:30:41;;;;;;;1.23;0.90;;;30.60;34.00;;;;;;5204813;28;20429;-47
2022/07/06 06:33:13;;;;;;;1.83;1.10;;;31.20;34.00;;;;;;5197258;28;20429;-48
2022/07/06 06:35:45;;;;;;;4.83;1.10;;;30.90;33.20;;;;;;5190018;28;20695;-49
2022/07/06 06:38:17;;;;;;;4.53;0.80;;;31.00;33.90;;;;;;5202366;28;20454;-47
2022/07/06 06:40:48;;;;;;;1.13;1.03;;;30.90;33.50;;;;;;5200942;28;20528;-46
2022/07/06 06:43:18;;;;;;;1.00;0.97;;;31.10;33.90;;;;;;5193587;28;20578;-49
2022/07/06 06:45:49;;;;;;;2.60;1.20;;;31.40;33.70;;;;;;5203079;28;20198;-49
2022/07/06 06:48:20;;;;;;;1.80;1.40;;;32.10;32.60;;;;;;5183410;28;20566;-48
2022/07/06 06:50:50;;;;;;;1.73;1.47;;;33.10;31.40;;;;;;5191705;28;20202;-48
2022/07/06 06:53:21;;;;;;;1.60;0.93;;;32.50;30.90;;;;;;5190557;28;20574;-49
2022/07/06 06:55:51;;;;;;;4.93;1.10;;;30.60;32.20;;;;;;5174719;28;20691;-48
2022/07/06 06:58:22;;;;;;;2.10;1.23;;;30.10;33.30;;;;;;5188975;28;20290;-49
2022/07/06 07:00:53;;;;;;;6.13;1.93;;;29.90;34.40;;;;;;5203142;28;20191;-49
2022/07/06 07:03:23;;;;;;;1.40;1.30;;;30.80;33.40;;;;;;5205919;28;20711;-48
2022/07/06 07:05:54;;;;;;;1.50;1.10;;;31.90;32.60;;;;;;5189334;28;20577;-50
2022/07/06 07:08:24;;;;;;;1.90;0.90;;;32.10;31.30;;;;;;5199339;28;20370;-49
2022/07/06 07:10:55;;;;;;;0.70;0.70;;;32.70;30.70;;;;;;5196657;28;20195;-48
2022/07/06 07:13:26;;;;;;;0.80;0.80;;;31.10;31.30;;;;;;5198639;28;20196;-54
2022/07/06 07:15:57;;;;;;;3.23;1.23;;;31.60;32.30;;;;;;5202381;28;20252;-47
2022/07/06 07:18:28;;;;;;;5.27;0.87;;;32.50;31.00;;;;;;5188192;28;20252;-49
2022/07/06 07:20:58;;;;;;;3.90;1.23;;;32.80;29.50;;;;;;5216454;28;20214;-49
2022/07/06 07:23:30;;;;;;;1.53;1.10;;;30.30;31.90;;;;;;5197765;28;20266;-50
2022/07/06 07:26:00;;;;;;;2.00;1.20;;;29.80;34.60;;;;;;5200055;28;20261;-49
2022/07/06 07:28:31;;;;;;;2.40;0.80;;;29.20;35.00;;;;;;5184803;28;20473;-48
2022/07/06 07:31:02;;;;;;;3.33;1.20;;;27.60;35.90;;;;;;5186515;28;20219;-48
2022/07/06 07:33:33;;;;;;;0.80;0.80;;;27.10;37.20;;;;;;5199376;28;20188;-48
2022/07/06 07:36:04;;;;;;;0.77;0.70;;;25.10;38.30;;;;;;5164628;28;20203;-48
2022/07/06 07:38:35;;;;;;;1.67;1.23;;;23.60;40.30;;;;;;5190782;28;20466;-48
2022/07/06 07:41:06;;;;;;;4.73;1.00;;;23.60;42.00;;;;;;5203645;28;20182;-49
2022/07/06 07:43:36;;;;;;;4.23;1.67;;;24.60;40.30;;;;;;5188991;28;20187;-49
2022/07/06 07:46:07;;;;;;;4.30;1.30;;;25.50;40.00;;;;;;5198637;28;20304;-49
2022/07/06 07:48:37;;;;;;;4.10;1.60;;;26.20;38.10;;;;;;5204091;28;20210;-49
2022/07/06 07:51:08;;;;;;;1.03;1.03;;;28.00;36.20;;;;;;5199887;28;20188;-46
2022/07/06 07:53:39;;;;;;;2.93;1.00;;;29.80;32.00;;;;;;5188636;28;20191;-48
2022/07/06 07:56:10;;;;;;;2.30;0.97;;;30.70;30.20;;;;;;5189123;28;20660;-49
2022/07/06 07:58:40;;;;;;;0.80;0.80;;;30.40;30.10;;;;;;5205795;28;20239;-48
2022/07/06 08:01:11;;;;;;;1.37;1.03;;;28.70;32.70;;;;;;5203869;28;20191;-49
2022/07/06 08:03:41;;;;;;;0.97;0.97;;;27.10;35.20;;;;;;5196036;28;20180;-49
2022/07/06 08:06:12;;;;;;;3.23;1.10;;;25.60;37.80;;;;;;5203094;28;20198;-48
2022/07/06 08:08:42;;;;;;;4.20;1.10;;;24.00;40.70;;;;;;5200774;28;20203;-48
2022/07/06 08:11:13;;;;;;;3.80;1.07;;;23.20;41.90;;;;;;5187945;28;20211;-48
2022/07/06 08:13:44;;;;;;;6.53;1.87;;;22.60;43.50;;;;;;5195609;28;20191;-48
2022/07/06 08:16:15;;;;;;;0.97;0.80;;;22.30;44.00;;;;;;5183952;28;20212;-49
2022/07/06 08:18:45;;;;;;;0.80;0.77;;;24.10;42.20;;;;;;5187504;28;20208;-47
2022/07/06 08:21:16;;;;;;;0.70;0.70;;;26.10;38.00;;;;;;5198344;28;20604;-49
2022/07/06 08:23:47;;;;;;;5.10;0.70;;;25.40;36.90;;;;;;5203964;28;20188;-48
2022/07/06 08:26:17;;;;;;;4.03;2.27;;;24.50;39.30;;;;;;5197599;28;20189;-48
2022/07/06 08:28:48;;;;;;;1.70;1.60;;;23.10;41.20;;;;;;5184582;28;20226;-49
2022/07/06 08:31:19;;;;;;;1.07;0.87;;;22.00;43.90;;;;;;5190313;28;20208;-49
2022/07/06 08:33:52;;;;;;;3.33;0.80;;;21.50;45.40;;;;;;5194343;28;20192;-50
2022/07/06 08:36:23;;;;;;;5.80;0.90;;;21.30;46.50;;;;;;5199357;28;20201;-49
2022/07/06 08:38:54;;;;;;;2.40;1.23;;;21.70;46.20;;;;;;5194629;28;20950;-48
2022/07/06 08:41:28;;;;;;;2.00;1.00;;;24.10;43.10;;;;;;5205086;28;20219;-48
2022/07/06 08:43:58;;;;;;;1.60;1.00;;;25.10;39.50;;;;;;5189218;28;20191;-47
2022/07/06 08:46:30;;;;;;;2.90;1.20;;;24.40;39.80;;;;;;5200283;28;20447;-49
2022/07/06 08:49:00;;;;;;;0.53;0.53;;;23.10;41.80;;;;;;5199653;28;20216;-48
2022/07/06 08:51:31;;;;;;;4.40;1.30;;;21.80;42.50;;;;;;5202590;28;20780;-48
2022/07/06 08:54:03;;;;;;;7.57;1.20;;;20.70;43.60;;;;;;5196556;28;20191;-50
2022/07/06 08:56:34;;;;;;;0.80;0.73;;;20.00;44.90;;;;;;5194325;28;20215;-50
2022/07/06 08:59:08;;;;;;;1.77;0.87;;;19.70;44.40;;;;;;5206217;28;20541;-50
2022/07/06 09:01:39;;;;;;;4.57;0.57;;;19.70;44.10;;;;;;5199837;28;20443;-49
2022/07/06 09:04:11;;;;;;;2.10;0.80;;;19.60;44.00;;;;;;5188863;28;20910;-50
2022/07/06 09:06:43;;;;;;;3.07;0.77;;;19.70;43.60;;;;;;5193370;28;20187;-48
2022/07/06 09:09:22;;;;;;;1.93;0.70;;;20.10;43.20;;;;;;5201879;28;20819;-49
2022/07/06 09:11:53;;;;;;;0.93;0.93;;;20.60;42.50;;;;;;5198029;28;20860;-49
2022/07/06 09:14:24;;;;;;;3.17;1.40;;;21.10;42.10;;;;;;5197311;28;20434;-47
2022/07/06 09:17:03;;;;;;;1.67;1.00;;;21.90;40.60;;;;;;5186935;28;20223;-50
2022/07/06 09:19:35;;;;;;;2.70;0.83;;;22.10;39.80;;;;;;5193919;28;21050;-50
2022/07/06 09:22:06;;;;;;;1.23;1.23;;;21.70;39.70;;;;;;5196577;28;20439;-48
2022/07/06 09:24:42;;;;;;;1.37;1.03;;;21.60;40.10;;;;;;5206027;28;20423;-47
2022/07/06 09:27:19;;;;;;;1.10;1.00;;;22.10;40.20;;;;;;5199351;28;20187;-49
2022/07/06 09:29:50;;;;;;;1.83;1.70;;;22.20;37.80;;;;;;5202607;28;20842;-48
2022/07/06 09:32:21;;;;;;;5.43;4.47;;;21.90;38.10;;;;;;5197318;28;20429;-50
2022/07/06 09:34:52;;;;;;;3.57;3.23;;;21.90;39.40;;;;;;5178932;28;20192;-48
2022/07/06 09:37:26;;;;;;;2.30;0.90;;;22.00;40.00;;;;;;5200192;28;20452;-47
2022/07/06 09:39:56;;;;;;;2.30;1.10;;;21.80;40.60;;;;;;5198994;28;20256;-49
2022/07/06 09:42:28;;;;;;;13.17;5.17;;;21.40;39.50;;;;;;5205867;28;20414;-48
2022/07/06 09:44:58;;;;;;;5.17;1.07;;;21.00;39.00;;;;;;5203728;28;20192;-49
2022/07/06 09:47:31;;;;;;;0.93;0.93;;;20.30;40.40;;;;;;5200925;28;20449;-48
2022/07/06 09:50:04;;;;;;;7.03;1.90;;;19.90;42.20;;;;;;5186474;28;20195;-48
2022/07/06 09:52:35;;;;;;;13.13;5.40;;;19.80;41.30;;;;;;5204384;28;20449;-50
2022/07/06 09:55:15;;;;;;;1.80;0.90;;;19.90;42.20;;;;;;5185644;28;20450;-49
2022/07/06 09:57:54;;;;;;;2.53;1.27;;;20.10;42.80;;;;;;5197276;28;20675;-47
2022/07/06 10:00:25;;;;;;;25.47;15.50;;;20.50;43.40;;;;;;5197683;28;20463;-48
2022/07/06 10:02:56;;;;;;;6.93;3.90;;;20.70;43.20;;;;;;5207825;28;20914;-48
2022/07/06 10:05:29;;;;;;;7.40;3.80;;;20.70;43.30;;;;;;5179436;28;20199;-49
2022/07/06 10:08:00;;;;;;;14.33;5.23;;;20.40;41.80;;;;;;5202345;28;20820;-49
2022/07/06 10:10:32;;;;;;;7.27;5.03;;;20.30;43.20;;;;;;5199767;28;20431;-48
2022/07/06 10:13:05;;;;;;;13.07;8.47;;;20.10;43.90;;;;;;5188391;28;20437;-50
2022/07/06 10:15:40;;;;;;;4.00;3.47;;;20.00;45.30;;;;;;5185320;28;20489;-49
2022/07/06 10:18:10;;;;;;;0.97;0.97;;;19.90;45.50;;;;;;5198718;28;20454;-49
2022/07/06 10:20:41;;;;;;;8.40;5.60;;;20.00;45.80;;;;;;5179719;28;20435;-46
2022/07/06 10:23:12;;;;;;;6.43;5.17;;;19.80;45.60;;;;;;5170809;28;20545;-48
2022/07/06 10:25:45;;;;;;;12.33;6.77;;;19.80;46.60;;;;;;5202085;28;20442;-49
2022/07/06 10:28:19;;;;;;;20.23;12.40;;;20.30;46.70;;;;;;5197594;28;20224;-48
2022/07/06 10:30:50;;;;;;;11.17;7.17;;;20.60;46.00;;;;;;5208257;28;20426;-46
2022/07/06 10:33:22;;;;;;;10.93;5.43;;;20.90;44.90;;;;;;5203382;28;20488;-49
2022/07/06 10:35:53;;;;;;;1.80;1.70;;;21.10;44.90;;;;;;5200800;28;20477;-52
2022/07/06 10:38:32;;;;;;;4.23;3.43;;;21.10;44.70;;;;;;5199192;28;20811;-49
2022/07/06 10:41:07;;;;;;;13.37;8.23;;;21.30;44.70;;;;;;5186137;28;20188;-49
2022/07/06 10:43:41;;;;;;;8.40;4.17;;;21.60;43.30;;;;;;5205704;28;20768;-51
2022/07/06 10:46:19;;;;;;;10.20;3.43;;;22.00;42.90;;;;;;5205844;28;20958;-49
2022/07/06 10:48:51;;;;;;;1.33;1.20;;;22.20;42.10;;;;;;5178423;28;20529;-48
2022/07/06 10:51:24;;;;;;;1.33;1.13;;;22.50;41.40;;;;;;5202783;28;20461;-49
2022/07/06 10:54:01;;;;;;;1.00;1.00;;;22.70;40.60;;;;;;5185765;28;20795;-50
2022/07/06 10:56:39;;;;;;;0.80;0.80;;;22.80;40.20;;;;;;5179879;28;20818;-48
2022/07/06 10:59:18;;;;;;;0.80;0.80;;;22.60;40.70;;;;;;5189713;28;20969;-50
2022/07/06 11:02:17;;;;;;;14.40;7.47;;;22.30;40.90;;;;;;5184674;28;20435;-49
2022/07/06 11:04:49;;;;;;;19.43;9.60;;;21.90;41.80;;;;;;5170916;28;20796;-49
2022/07/06 11:07:20;;;;;;;41.37;19.33;;;21.90;42.10;;;;;;5187116;28;20442;-49
2022/07/06 11:09:56;;;;;;;2.07;1.97;;;22.20;42.30;;;;;;5207761;28;20500;-51
2022/07/06 11:12:27;;;;;;;1.53;1.13;;;22.10;41.90;;;;;;5201882;28;20794;-50
2022/07/06 11:15:01;;;;;;;10.77;7.17;;;21.90;40.80;;;;;;5197345;28;20439;-49
2022/07/06 11:17:32;;;;;;;9.37;5.23;;;21.70;41.60;;;;;;5197622;28;20185;-50
2022/07/06 11:20:11;;;;;;;4.37;2.17;;;21.90;41.90;;;;;;5189125;28;20529;-48
2022/07/06 11:22:43;;;;;;;3.87;3.10;;;22.20;42.20;;;;;;5204083;28;20652;-49
2022/07/06 11:25:15;;;;;;;7.03;2.70;;;22.20;41.40;;;;;;5200294;28;20427;-49
2022/07/06 11:27:46;;;;;;;5.50;1.47;;;22.00;42.20;;;;;;5196805;28;20513;-47
2022/07/06 11:30:20;;;;;;;3.93;2.23;;;21.80;43.00;;;;;;5171163;28;20455;-50
2022/07/06 11:32:51;;;;;;;1.63;1.53;;;21.20;43.70;;;;;;5177961;28;20442;-48
2022/07/06 11:35:22;;;;;;;2.73;1.03;;;20.90;44.70;;;;;;5190629;28;20537;-49
2022/07/06 11:37:53;;;;;;;0.87;0.87;;;20.90;45.20;;;;;;5204331;28;20207;-49
2022/07/06 11:40:24;;;;;;;2.30;1.13;;;20.60;45.10;;;;;;5204083;28;20185;-47
2022/07/06 11:42:54;;;;;;;15.23;8.10;;;20.50;45.00;;;;;;5192381;28;20557;-49
2022/07/06 11:45:26;;;;;;;2.87;2.13;;;20.40;45.40;;;;;;5172390;28;20191;-49
2022/07/06 11:48:11;;;;;;;5.90;4.43;;;20.40;45.70;;;;;;5203894;28;20245;-49
2022/07/06 11:50:42;;;;;;;2.10;1.47;;;20.60;45.00;;;;;;5203246;28;20591;-48
2022/07/06 11:53:15;;;;;;;3.03;0.90;;;20.90;44.00;;;;;;5200421;28;20525;-48
2022/07/06 11:55:45;;;;;;;1.00;1.00;;;21.40;42.80;;;;;;5201607;28;20463;-49
2022/07/06 11:58:23;;;;;;;1.10;1.00;;;21.70;41.80;;;;;;5203992;28;20473;-49
2022/07/06 12:01:15;;;;;;;1.90;1.80;;;21.70;41.10;;;;;;5189476;28;20274;-49
2022/07/06 12:03:46;;;;;;;2.03;1.50;;;21.40;42.10;;;;;;5179565;28;20438;-48
2022/07/06 12:06:23;;;;;;;7.10;2.30;;;21.10;42.70;;;;;;5200457;28;20447;-48
2022/07/06 12:08:56;;;;;;;2.20;1.60;;;21.10;43.30;;;;;;5193920;28;20262;-50
2022/07/06 12:11:32;;;;;;;6.20;5.20;;;21.10;43.70;;;;;;5179743;28;20450;-48
2022/07/06 12:14:15;;;;;;;7.07;5.97;;;21.20;43.90;;;;;;5186909;28;20496;-47
2022/07/06 12:16:48;;;;;;;0.83;0.70;;;21.40;43.80;;;;;;5194135;28;20805;-50
2022/07/06 12:19:22;;;;;;;2.27;2.07;;;21.30;43.70;;;;;;5169494;28;21005;-50
2022/07/06 12:21:53;;;;;;;2.03;0.93;;;21.30;44.20;;;;;;5199155;28;20911;-49
2022/07/06 12:24:26;;;;;;;1.10;0.70;;;21.30;43.90;;;;;;5197243;28;20442;-49
2022/07/06 12:26:57;;;;;;;2.27;1.13;;;21.30;43.50;;;;;;5186218;28;20876;-50
2022/07/06 12:29:28;;;;;;;2.50;0.80;;;21.30;43.10;;;;;;5205221;28;20552;-50
2022/07/06 12:31:59;;;;;;;0.50;0.50;;;21.20;43.00;;;;;;5194088;28;20180;-49
2022/07/06 12:34:31;;;;;;;5.70;1.13;;;21.40;43.30;;;;;;5204112;28;20198;-50
2022/07/06 12:37:07;;;;;;;6.40;3.13;;;21.00;42.60;;;;;;5204340;28;20560;-50
2022/07/06 12:39:46;;;;;;;23.23;13.60;;;21.20;43.50;;;;;;5205793;28;20553;-49
2022/07/06 12:42:17;;;;;;;9.80;7.67;;;21.70;43.60;;;;;;5199956;28;20461;-50
2022/07/06 12:44:50;;;;;;;2.20;1.70;;;21.70;42.80;;;;;;5188756;28;20439;-47
2022/07/06 12:47:23;;;;;;;16.90;8.50;;;21.70;43.10;;;;;;5197843;28;21029;-45
2022/07/06 12:50:09;;;;;;;6.00;3.60;;;21.50;43.40;;;;;;5197608;28;20530;-49
2022/07/06 12:52:39;;;;;;;3.17;1.57;;;21.20;43.50;;;;;;5202379;28;20493;-50
2022/07/06 12:55:12;;;;;;;1.20;0.80;;;21.60;44.00;;;;;;5204854;28;20898;-49
2022/07/06 12:57:47;;;;;;;9.17;1.00;;;21.90;43.10;;;;;;5187346;28;20207;-50
2022/07/06 13:00:18;;;;;;;6.10;1.40;;;22.00;42.40;;;;;;5171919;28;20437;-51
2022/07/06 13:02:58;;;;;;;1.00;1.00;;;21.80;42.40;;;;;;5186471;28;20488;-49
2022/07/06 13:05:29;;;;;;;1.07;0.97;;;21.70;43.10;;;;;;5182299;28;20255;-49
2022/07/06 13:08:00;;;;;;;0.80;0.80;;;21.70;42.40;;;;;;5184089;28;20899;-49
2022/07/06 13:10:31;;;;;;;7.73;1.27;;;21.70;42.90;;;;;;5188536;28;20180;-47